createdAt,value
2018-05-29T00:02:10.799Z,19.47
2018-05-29T00:04:38.303Z,16.30
2018-05-29T00:07:05.784Z,20.43
2018-05-29T00:09:33.297Z,19.60
2018-05-29T00:12:18.818Z,17.57
2018-05-29T00:14:46.307Z,18.67
2018-05-29T00:17:13.795Z,17.00
2018-05-29T00:19:41.290Z,17.00
2018-05-29T00:22:08.766Z,16.70
2018-05-29T00:24:36.234Z,17.10
2018-05-29T00:27:03.743Z,16.23
2018-05-29T00:29:31.208Z,16.90
2018-05-29T00:31:58.689Z,21.67
2018-05-29T00:34:26.179Z,18.03
2018-05-29T00:36:53.675Z,15.90
2018-05-29T00:39:21.147Z,18.00
2018-05-29T00:41:48.645Z,21.00
2018-05-29T00:44:16.125Z,17.47
2018-05-29T00:46:43.614Z,20.27
2018-05-29T00:49:11.085Z,19.37
2018-05-29T00:51:38.582Z,18.57
2018-05-29T00:54:06.991Z,20.70
2018-05-29T00:56:34.529Z,15.57
2018-05-29T00:59:01.993Z,17.70
2018-05-29T01:01:29.489Z,15.33
2018-05-29T01:03:56.963Z,18.93
2018-05-29T01:06:24.426Z,21.93
2018-05-29T01:08:51.910Z,23.63
2018-05-29T01:11:19.378Z,21.13
2018-05-29T01:13:46.874Z,21.47
2018-05-29T01:16:14.337Z,22.90
2018-05-29T01:18:41.838Z,20.37
2018-05-29T01:21:09.319Z,19.83
2018-05-29T01:23:36.810Z,21.57
2018-05-29T01:26:04.287Z,20.47
2018-05-29T01:28:31.779Z,18.83
2018-05-29T01:30:59.251Z,18.33
2018-05-29T01:33:26.746Z,17.50
2018-05-29T01:35:54.229Z,18.13
2018-05-29T01:38:21.761Z,18.80
2018-05-29T01:40:49.254Z,19.53
2018-05-29T01:43:16.730Z,17.80
2018-05-29T01:45:44.219Z,17.00
2018-05-29T01:48:11.700Z,17.97
2018-05-29T01:50:39.232Z,19.20
2018-05-29T01:53:06.710Z,17.80
2018-05-29T01:55:34.258Z,16.37
2018-05-29T01:58:01.732Z,18.80
2018-05-29T02:00:29.218Z,18.87
2018-05-29T02:02:56.702Z,18.40
2018-05-29T02:05:24.198Z,18.67
2018-05-29T02:07:51.681Z,21.40
2018-05-29T02:10:19.172Z,19.73
2018-05-29T02:12:46.654Z,17.63
2018-05-29T02:15:14.154Z,19.10
2018-05-29T02:17:41.622Z,16.03
2018-05-29T02:20:09.117Z,16.93
2018-05-29T02:22:36.604Z,20.43
2018-05-29T02:25:04.295Z,19.40
2018-05-29T02:27:31.785Z,20.13
2018-05-29T02:29:59.271Z,17.10
2018-05-29T02:32:26.771Z,21.43
2018-05-29T02:34:54.242Z,21.93
2018-05-29T02:37:21.734Z,18.03
2018-05-29T02:39:49.223Z,17.47
2018-05-29T02:42:17.473Z,16.60
2018-05-29T02:44:44.956Z,16.87
2018-05-29T02:47:12.458Z,15.97
2018-05-29T02:49:39.936Z,17.43
2018-05-29T02:52:07.424Z,19.37
2018-05-29T02:54:34.916Z,17.27
2018-05-29T02:57:02.431Z,18.80
2018-05-29T02:59:29.898Z,25.40
2018-05-29T03:01:57.377Z,17.03
2018-05-29T03:04:24.889Z,16.40
2018-05-29T03:06:52.373Z,21.63
2018-05-29T03:09:19.862Z,17.47
2018-05-29T03:11:47.342Z,25.30
2018-05-29T03:14:14.853Z,20.80
2018-05-29T03:16:42.322Z,19.73
2018-05-29T03:19:09.839Z,19.13
2018-05-29T03:21:37.313Z,17.95
2018-05-29T03:24:04.821Z,20.53
2018-05-29T03:26:32.359Z,24.63
2018-05-29T03:28:59.817Z,17.50
2018-05-29T03:31:27.297Z,17.37
2018-05-29T03:33:54.801Z,22.03
2018-05-29T03:36:22.718Z,18.10
2018-05-29T03:38:50.190Z,20.40
2018-05-29T03:41:17.685Z,21.13
2018-05-29T03:43:45.167Z,25.73
2018-05-29T03:46:12.659Z,21.63
2018-05-29T03:48:40.137Z,24.20
2018-05-29T03:51:07.643Z,22.50
2018-05-29T03:53:35.130Z,32.10
2018-05-29T03:56:02.623Z,22.70
2018-05-29T03:58:30.102Z,24.57
2018-05-29T04:00:58.457Z,24.60
2018-05-29T04:03:25.934Z,25.70
2018-05-29T04:05:53.728Z,26.37
2018-05-29T04:08:21.213Z,26.23
2018-05-29T04:10:48.698Z,24.77
2018-05-29T04:13:16.204Z,25.10
2018-05-29T04:15:43.679Z,26.27
2018-05-29T04:18:11.183Z,24.63
2018-05-29T04:20:38.655Z,18.90
2018-05-29T04:23:06.178Z,19.53
2018-05-29T04:25:33.674Z,21.10
2018-05-29T04:28:01.174Z,19.40
2018-05-29T04:30:28.646Z,20.87
2018-05-29T04:32:56.151Z,24.07
2018-05-29T04:35:23.629Z,17.57
2018-05-29T04:37:51.121Z,21.50
2018-05-29T04:40:18.596Z,22.00
2018-05-29T04:42:46.106Z,19.83
2018-05-29T04:45:13.587Z,19.97
2018-05-29T04:47:41.086Z,19.13
2018-05-29T04:50:08.571Z,20.60
2018-05-29T04:52:36.038Z,22.23
2018-05-29T04:55:03.528Z,20.40
2018-05-29T04:57:31.979Z,23.03
2018-05-29T04:59:59.475Z,22.80
2018-05-29T05:02:27.055Z,20.80
2018-05-29T05:04:54.505Z,19.27
2018-05-29T05:07:21.998Z,18.90
2018-05-29T05:09:49.494Z,18.70
2018-05-29T05:12:16.966Z,22.77
2018-05-29T05:14:44.476Z,20.63
2018-05-29T05:17:11.950Z,18.47
2018-05-29T05:19:39.446Z,21.20
2018-05-29T05:22:07.191Z,19.53
2018-05-29T05:24:35.095Z,25.90
2018-05-29T05:27:02.970Z,20.30
2018-05-29T05:29:31.338Z,22.23
2018-05-29T05:31:59.087Z,21.97
2018-05-29T05:34:26.601Z,21.63
2018-05-29T05:36:54.936Z,23.00
2018-05-29T05:39:23.595Z,21.53
2018-05-29T05:41:51.571Z,24.70
2018-05-29T05:44:19.114Z,22.30
2018-05-29T05:46:46.970Z,22.07
2018-05-29T05:49:14.689Z,19.43
2018-05-29T05:51:42.610Z,21.50
2018-05-29T05:54:10.138Z,20.63
2018-05-29T05:56:37.666Z,21.40
2018-05-29T05:59:05.166Z,24.87
2018-05-29T06:01:33.577Z,20.47
2018-05-29T06:04:01.335Z,22.63
2018-05-29T06:06:28.879Z,19.57
2018-05-29T06:08:56.395Z,20.50
2018-05-29T06:11:24.003Z,21.83
2018-05-29T06:13:51.487Z,21.23
2018-05-29T06:16:19.243Z,26.00
2018-05-29T06:18:47.307Z,22.03
2018-05-29T06:21:16.079Z,23.50
2018-05-29T06:23:44.311Z,21.37
2018-05-29T06:26:12.046Z,22.00
2018-05-29T06:28:39.807Z,25.27
2018-05-29T06:31:08.137Z,22.33
2018-05-29T06:33:35.686Z,21.53
2018-05-29T06:36:03.193Z,22.57
2018-05-29T06:38:31.112Z,22.87
2018-05-29T06:40:58.898Z,23.60
2018-05-29T06:43:26.429Z,23.80
2018-05-29T06:57:24.974Z,22.77
2018-05-29T06:59:53.849Z,23.20
2018-05-29T07:02:21.588Z,22.27
2018-05-29T07:04:49.820Z,23.37
2018-05-29T07:07:17.375Z,22.53
2018-05-29T07:09:45.130Z,23.63
2018-05-29T07:12:14.019Z,23.17
2018-05-29T07:14:42.429Z,22.27
2018-05-29T07:17:10.601Z,22.73
2018-05-29T07:19:38.342Z,22.70
2018-05-29T07:22:06.258Z,21.80
2018-05-29T07:24:33.895Z,20.20
2018-05-29T07:27:01.755Z,21.50
2018-05-29T07:29:29.307Z,22.07
2018-05-29T07:31:56.843Z,20.93
2018-05-29T07:34:24.320Z,20.83
2018-05-29T07:36:51.927Z,21.37
2018-05-29T07:39:19.492Z,24.43
2018-05-29T07:41:47.009Z,20.67
2018-05-29T07:44:15.677Z,19.87
2018-05-29T07:46:43.682Z,21.10
2018-05-29T07:49:11.442Z,20.60
2018-05-29T07:51:38.987Z,21.70
2018-05-29T07:54:06.710Z,18.63
2018-05-29T07:56:35.238Z,19.30
2018-05-29T07:59:02.732Z,20.63
2018-05-29T08:01:30.303Z,19.30
2018-05-29T08:03:59.052Z,20.33
2018-05-29T08:06:27.063Z,22.37
2018-05-29T08:08:55.298Z,22.00
2018-05-29T08:11:22.860Z,23.43
2018-05-29T08:13:50.683Z,21.00
2018-05-29T08:16:18.461Z,22.00
2018-05-29T08:18:46.473Z,20.30
2018-05-29T08:21:14.765Z,20.90
2018-05-29T08:23:43.125Z,20.60
2018-05-29T08:26:11.050Z,19.93
2018-05-29T08:28:38.910Z,19.00
2018-05-29T08:31:07.492Z,19.67
2018-05-29T08:33:35.035Z,19.83
2018-05-29T08:36:02.618Z,19.13
2018-05-29T08:38:31.499Z,17.87
2018-05-29T08:40:59.026Z,17.57
2018-05-29T08:43:32.879Z,17.77
2018-05-29T08:46:01.514Z,16.97
2018-05-29T08:48:29.307Z,17.80
2018-05-29T08:50:57.269Z,17.00
2018-05-29T08:53:25.333Z,19.60
2018-05-29T08:55:53.072Z,18.60
2018-05-29T08:58:20.872Z,18.23
2018-05-29T09:00:49.488Z,18.20
2018-05-29T09:03:17.259Z,19.03
2018-05-29T09:05:45.641Z,16.73
2018-05-29T09:08:13.878Z,15.70
2018-05-29T09:10:41.384Z,17.17
2018-05-29T09:13:08.971Z,17.87
2018-05-29T09:15:37.188Z,16.37
2018-05-29T09:18:05.193Z,17.40
2018-05-29T09:20:33.899Z,20.02
2018-05-29T09:23:01.647Z,19.05
2018-05-29T09:25:29.362Z,18.90
2018-05-29T09:27:57.718Z,18.67
2018-05-29T09:30:25.435Z,20.77
2018-05-29T09:32:53.373Z,20.60
2018-05-29T09:35:21.374Z,20.15
2018-05-29T09:37:49.368Z,18.62
2018-05-29T09:40:17.141Z,19.33
2018-05-29T09:42:44.686Z,19.75
2018-05-29T09:45:15.630Z,19.15
2018-05-29T09:47:43.403Z,21.55
2018-05-29T09:50:10.963Z,20.42
2018-05-29T09:52:38.685Z,20.52
2018-05-29T09:55:06.685Z,21.75
2018-05-29T09:57:34.532Z,20.35
2018-05-29T10:00:06.007Z,17.92
2018-05-29T10:02:33.863Z,19.37
2018-05-29T10:05:02.403Z,17.87
2018-05-29T10:07:30.160Z,18.60
2018-05-29T10:09:59.229Z,19.52
2018-05-29T10:12:27.159Z,15.68
2018-05-29T10:14:55.828Z,16.62
2018-05-29T10:17:23.567Z,14.75
2018-05-29T10:19:52.124Z,15.27
2018-05-29T10:22:20.675Z,14.55
2018-05-29T10:24:48.484Z,12.90
2018-05-29T10:27:16.513Z,14.35
2018-05-29T10:29:44.301Z,12.55
2018-05-29T10:32:12.714Z,11.68
2018-05-29T10:34:42.093Z,11.93
2018-05-29T10:37:09.678Z,12.65
2018-05-29T10:39:37.550Z,12.48
2018-05-29T10:42:05.258Z,13.50
2018-05-29T10:44:33.317Z,14.27
2018-05-29T10:47:01.722Z,12.37
2018-05-29T10:49:29.330Z,13.30
2018-05-29T10:51:57.083Z,12.63
2018-05-29T10:54:24.733Z,12.07
2018-05-29T10:56:52.333Z,12.80
2018-05-29T10:59:20.334Z,11.52
2018-05-29T11:01:47.802Z,12.20
2018-05-29T11:04:15.567Z,11.85
2018-05-29T11:06:43.309Z,9.90
2018-05-29T11:09:11.444Z,9.40
2018-05-29T11:11:39.327Z,9.65
2018-05-29T11:14:07.198Z,9.48
2018-05-29T11:16:34.946Z,9.25
2018-05-29T11:19:03.512Z,8.95
2018-05-29T11:21:32.240Z,9.52
2018-05-29T11:23:59.789Z,8.65
2018-05-29T11:26:27.675Z,9.15
2018-05-29T11:28:55.466Z,8.90
2018-05-29T11:31:23.311Z,8.95
2018-05-29T11:33:51.561Z,8.63
2018-05-29T11:36:19.500Z,9.80
2018-05-29T11:38:47.054Z,8.52
2018-05-29T11:41:14.579Z,10.15
2018-05-29T11:43:42.454Z,8.93
2018-05-29T11:46:10.018Z,9.65
2018-05-29T11:48:38.408Z,8.90
2018-05-29T11:51:05.870Z,8.77
2018-05-29T11:53:33.426Z,8.43
2018-05-29T11:56:01.360Z,8.88
2018-05-29T11:58:28.966Z,8.73
2018-05-29T12:00:56.546Z,8.73
2018-05-29T12:03:24.310Z,8.70
2018-05-29T12:05:51.912Z,8.77
2018-05-29T12:08:19.438Z,9.60
2018-05-29T12:10:47.034Z,9.40
2018-05-29T12:13:14.815Z,10.95
2018-05-29T12:15:42.622Z,8.75
2018-05-29T12:18:10.467Z,8.35
2018-05-29T12:20:38.285Z,8.68
2018-05-29T12:23:06.662Z,8.82
2018-05-29T12:25:34.896Z,9.55
2018-05-29T12:28:05.483Z,9.43
2018-05-29T12:30:34.213Z,7.75
2018-05-29T12:33:02.891Z,8.13
2018-05-29T12:35:30.792Z,8.25
2018-05-29T12:37:59.515Z,8.80
2018-05-29T12:40:27.223Z,8.45
2018-05-29T12:42:55.502Z,9.95
2018-05-29T12:45:24.310Z,9.45
2018-05-29T12:47:53.553Z,9.18
2018-05-29T12:50:21.446Z,11.38
2018-05-29T12:52:50.177Z,9.05
2018-05-29T12:55:20.002Z,9.18
2018-05-29T12:57:47.959Z,8.55
2018-05-29T13:00:16.123Z,10.68
2018-05-29T13:02:45.759Z,8.02
2018-05-29T13:05:14.364Z,8.85
2018-05-29T13:10:52.291Z,10.43
2018-05-29T13:13:19.874Z,9.55
2018-05-29T13:15:47.371Z,9.35
2018-05-29T13:18:15.039Z,10.10
2018-05-29T13:20:42.681Z,10.38
2018-05-29T13:23:10.204Z,9.20
2018-05-29T13:25:38.013Z,11.33
2018-05-29T13:28:05.645Z,9.60
2018-05-29T13:30:33.331Z,12.33
2018-05-29T13:33:00.899Z,8.13
2018-05-29T13:35:28.691Z,7.77
2018-05-29T13:37:56.216Z,6.53
2018-05-29T13:40:23.810Z,7.17
2018-05-29T13:42:51.393Z,9.30
2018-05-29T13:45:19.421Z,7.27
2018-05-29T13:47:47.045Z,6.60
2018-05-29T13:50:22.996Z,8.47
2018-05-29T13:52:50.591Z,11.40
2018-05-29T13:55:18.129Z,8.33
2018-05-29T13:57:45.883Z,7.40
2018-05-29T14:00:13.631Z,4.13
2018-05-29T14:02:45.016Z,6.77
2018-05-29T14:05:12.582Z,8.27
2018-05-29T14:07:40.251Z,7.90
2018-05-29T14:10:12.815Z,9.10
2018-05-29T14:12:40.502Z,11.70
2018-05-29T14:15:08.228Z,8.50
2018-05-29T14:17:36.265Z,10.73
2018-05-29T14:20:03.866Z,12.40
2018-05-29T14:22:31.640Z,14.33
2018-05-29T14:24:59.964Z,12.40
2018-05-29T14:27:27.608Z,12.77
2018-05-29T14:29:55.455Z,13.37
2018-05-29T14:32:33.244Z,8.20
2018-05-29T14:35:00.943Z,12.60
2018-05-29T14:40:20.007Z,9.10
2018-05-29T14:42:48.537Z,8.73
2018-05-29T14:45:16.929Z,9.27
2018-05-29T14:47:44.594Z,8.93
2018-05-29T14:50:12.102Z,8.97
2018-05-29T14:52:39.690Z,8.53
2018-05-29T14:55:07.431Z,7.80
2018-05-29T14:57:34.946Z,5.70
2018-05-29T15:00:02.424Z,10.10
2018-05-29T15:02:29.930Z,7.77
2018-05-29T15:04:57.418Z,7.93
2018-05-29T15:07:24.916Z,9.20
2018-05-29T15:09:52.398Z,7.90
2018-05-29T15:12:19.866Z,6.70
2018-05-29T15:14:47.350Z,6.43
2018-05-29T15:17:14.826Z,7.77
2018-05-29T15:19:42.319Z,7.20
2018-05-29T15:22:09.804Z,7.00
2018-05-29T15:24:37.303Z,8.33
2018-05-29T15:27:04.771Z,8.70
2018-05-29T15:29:32.289Z,7.43
2018-05-29T15:31:59.754Z,8.50
2018-05-29T15:34:27.249Z,8.50
2018-05-29T15:36:54.733Z,8.73
2018-05-29T15:39:22.252Z,10.57
2018-05-29T15:41:49.739Z,11.53
2018-05-29T15:44:17.250Z,11.33
2018-05-29T15:46:45.244Z,9.70
2018-05-29T15:49:12.857Z,10.50
2018-05-29T15:51:40.403Z,10.43
2018-05-29T15:54:08.330Z,10.13
2018-05-29T15:56:35.809Z,11.30
2018-05-29T15:59:03.683Z,11.17
2018-05-29T16:01:31.147Z,10.63
2018-05-29T16:03:58.638Z,10.87
2018-05-29T16:06:26.117Z,11.30
2018-05-29T16:08:53.611Z,11.07
2018-05-29T16:11:22.999Z,13.60
2018-05-29T16:13:50.498Z,11.83
2018-05-29T16:16:17.975Z,14.67
2018-05-29T16:18:45.466Z,13.47
2018-05-29T16:21:12.938Z,13.60
2018-05-29T16:23:40.430Z,14.60
2018-05-29T16:26:07.934Z,16.37
2018-05-29T16:28:35.438Z,15.90
2018-05-29T16:31:02.920Z,15.00
2018-05-29T16:33:30.395Z,15.97
2018-05-29T16:35:57.935Z,16.37
2018-05-29T16:38:25.430Z,16.30
2018-05-29T16:40:52.950Z,16.90
2018-05-29T16:43:20.459Z,16.43
2018-05-29T16:45:48.021Z,15.13
2018-05-29T16:48:15.559Z,16.70
2018-05-29T16:50:43.136Z,16.07
2018-05-29T16:53:10.668Z,15.67
2018-05-29T16:55:38.294Z,13.57
2018-05-29T16:58:05.815Z,14.50
2018-05-29T17:00:33.323Z,15.50
2018-05-29T17:03:00.892Z,13.30
2018-05-29T17:05:28.479Z,13.63
2018-05-29T17:07:56.034Z,13.83
2018-05-29T17:10:23.865Z,12.67
2018-05-29T17:12:51.512Z,11.73
2018-05-29T17:15:19.128Z,11.40
2018-05-29T17:17:46.657Z,10.90
2018-05-29T17:20:14.312Z,15.80
2018-05-29T17:22:41.861Z,12.97
2018-05-29T17:25:09.427Z,11.33
2018-05-29T17:27:37.327Z,11.00
2018-05-29T17:30:05.572Z,11.73
2018-05-29T17:32:33.748Z,12.97
2018-05-29T17:35:01.372Z,12.07
2018-05-29T17:37:28.897Z,12.57
2018-05-29T17:39:56.417Z,12.33
2018-05-29T17:42:23.905Z,15.17
2018-05-29T17:44:51.427Z,13.03
2018-05-29T17:47:18.935Z,15.30
2018-05-29T17:49:46.454Z,13.20
2018-05-29T17:52:13.927Z,12.17
2018-05-29T17:54:41.414Z,13.33
2018-05-29T17:57:08.915Z,13.90
2018-05-29T17:59:36.386Z,13.10
2018-05-29T18:02:03.887Z,13.30
2018-05-29T18:04:31.358Z,12.90
2018-05-29T18:06:59.021Z,13.87
2018-05-29T18:09:26.574Z,15.10
2018-05-29T18:11:54.187Z,12.97
2018-05-29T18:14:21.767Z,13.97
2018-05-29T18:16:49.436Z,12.53
2018-05-29T18:19:17.115Z,12.40
2018-05-29T18:21:44.772Z,14.03
2018-05-29T18:24:12.254Z,13.83
2018-05-29T18:26:39.755Z,17.37
2018-05-29T18:29:07.269Z,17.57
2018-05-29T18:31:34.759Z,15.30
2018-05-29T18:34:02.235Z,16.47
2018-05-29T18:36:29.734Z,19.10
2018-05-29T18:38:57.972Z,18.37
2018-05-29T18:41:25.611Z,19.97
2018-05-29T18:43:53.235Z,17.67
2018-05-29T18:46:21.434Z,19.07
2018-05-29T18:48:48.964Z,21.37
2018-05-29T18:51:16.497Z,21.07
2018-05-29T18:53:43.965Z,21.80
2018-05-29T18:56:11.457Z,20.53
2018-05-29T18:58:38.929Z,21.20
2018-05-29T19:01:06.425Z,21.47
2018-05-29T19:03:33.989Z,23.10
2018-05-29T19:06:01.464Z,21.97
2018-05-29T19:08:29.676Z,23.50
2018-05-29T19:10:57.182Z,23.37
2018-05-29T19:13:24.721Z,23.97
2018-05-29T19:15:52.280Z,21.77
2018-05-29T19:18:19.838Z,23.33
2018-05-29T19:20:47.417Z,19.60
2018-05-29T19:23:14.960Z,22.23
2018-05-29T19:25:42.458Z,21.50
2018-05-29T19:28:09.987Z,28.80
2018-05-29T19:30:37.527Z,21.33
2018-05-29T19:33:05.098Z,22.53
2018-05-29T19:35:32.631Z,24.10
2018-05-29T19:38:00.169Z,22.17
2018-05-29T19:40:27.720Z,23.23
2018-05-29T19:42:55.287Z,22.30
2018-05-29T19:45:22.914Z,23.50
2018-05-29T19:47:50.475Z,23.97
2018-05-29T19:50:17.986Z,24.73
2018-05-29T19:52:45.569Z,27.67
2018-05-29T19:55:13.134Z,23.17
2018-05-29T19:57:40.706Z,24.63
2018-05-29T20:00:08.245Z,24.27
2018-05-29T20:02:35.810Z,27.77
2018-05-29T20:05:03.363Z,25.10
2018-05-29T20:07:30.911Z,24.40
2018-05-29T20:09:58.504Z,28.73
2018-05-29T20:12:26.054Z,23.47
2018-05-29T20:14:53.560Z,24.57
2018-05-29T20:17:31.029Z,23.63
2018-05-29T20:19:58.515Z,22.67
2018-05-29T20:22:26.007Z,23.90
2018-05-29T20:24:53.573Z,24.40
2018-05-29T20:27:21.065Z,24.23
2018-05-29T20:29:48.550Z,24.77
2018-05-29T20:32:16.062Z,24.70
2018-05-29T20:34:43.556Z,24.47
2018-05-29T20:37:11.042Z,24.60
2018-05-29T20:39:38.531Z,23.07
2018-05-29T20:42:06.002Z,23.63
2018-05-29T20:44:33.501Z,23.47
2018-05-29T20:47:00.982Z,26.70
2018-05-29T20:49:28.478Z,25.47
2018-05-29T20:51:55.949Z,29.53
2018-05-29T20:54:23.448Z,31.60
2018-05-29T20:56:50.922Z,38.13
2018-05-29T20:59:18.417Z,39.03
2018-05-29T21:01:45.909Z,37.57
2018-05-29T21:04:13.422Z,39.00
2018-05-29T21:06:40.894Z,42.23
2018-05-29T21:09:08.360Z,41.03
2018-05-29T21:11:35.862Z,39.87
2018-05-29T21:14:03.366Z,44.50
2018-05-29T21:16:30.859Z,35.90
2018-05-29T21:18:58.330Z,28.03
2018-05-29T21:21:25.825Z,25.73
2018-05-29T21:23:53.321Z,25.50
2018-05-29T21:26:20.809Z,29.13
2018-05-29T21:28:48.297Z,30.83
2018-05-29T21:31:15.802Z,30.83
2018-05-29T21:33:43.282Z,35.00
2018-05-29T21:36:10.793Z,29.97
2018-05-29T21:38:38.270Z,27.10
2018-05-29T21:41:05.761Z,29.77
2018-05-29T21:43:33.238Z,26.13
2018-05-29T21:46:00.713Z,29.03
2018-05-29T21:48:28.203Z,29.23
2018-05-29T21:50:55.683Z,25.37
2018-05-29T21:53:23.174Z,24.67
2018-05-29T21:55:50.639Z,23.90
2018-05-29T21:58:18.139Z,27.43
2018-05-29T22:00:45.610Z,23.83
2018-05-29T22:03:13.101Z,22.73
2018-05-29T22:05:40.575Z,26.80
2018-05-29T22:08:08.079Z,24.27
2018-05-29T22:10:35.563Z,23.00
2018-05-29T22:13:03.052Z,22.73
2018-05-29T22:15:30.525Z,24.27
2018-05-29T22:17:57.998Z,23.77
2018-05-29T22:20:25.510Z,23.10
2018-05-29T22:22:52.986Z,24.17
2018-05-29T22:25:20.473Z,23.30
2018-05-29T22:27:47.947Z,23.10
2018-05-29T22:30:15.460Z,22.63
2018-05-29T22:32:42.934Z,25.27
2018-05-29T22:35:10.431Z,24.37
2018-05-29T22:37:37.921Z,22.53
2018-05-29T22:40:05.418Z,24.13
2018-05-29T22:42:32.886Z,23.30
2018-05-29T22:45:00.378Z,26.07
2018-05-29T22:47:27.871Z,21.67
2018-05-29T22:49:55.378Z,26.23
2018-05-29T22:52:22.855Z,21.70
2018-05-29T22:54:50.330Z,24.10
2018-05-29T22:57:17.857Z,28.57
2018-05-29T22:59:45.338Z,21.53
2018-05-29T23:02:12.833Z,20.83
2018-05-29T23:04:40.319Z,22.60
2018-05-29T23:07:07.819Z,22.80
2018-05-29T23:09:35.295Z,24.33
2018-05-29T23:12:02.786Z,24.33
2018-05-29T23:14:30.262Z,29.67
2018-05-29T23:16:57.749Z,26.30
2018-05-29T23:19:25.262Z,28.50
2018-05-29T23:21:52.746Z,25.57
2018-05-29T23:24:20.218Z,25.07
2018-05-29T23:26:47.685Z,26.67
2018-05-29T23:29:15.187Z,27.73
2018-05-29T23:31:42.666Z,27.23
2018-05-29T23:34:10.168Z,25.17
2018-05-29T23:36:37.646Z,29.90
2018-05-29T23:39:06.020Z,27.90
2018-05-29T23:41:33.514Z,37.30
2018-05-29T23:44:01.010Z,31.47
2018-05-29T23:46:28.481Z,32.43
2018-05-29T23:48:55.971Z,41.00
2018-05-29T23:51:23.468Z,39.03
2018-05-29T23:53:50.958Z,43.97
2018-05-29T23:56:18.429Z,37.00
2018-05-29T23:58:45.941Z,38.50
